sensor_id;sensor_type;location;lat;lon;timestamp;temperature;humidity
12761;DHT22;6444;49.742;6.114;2023-04-15T00:01:20;11.60;99.90
12761;DHT22;6444;49.742;6.114;2023-04-15T00:03:49;11.40;99.90
12761;DHT22;6444;49.742;6.114;2023-04-15T00:06:14;11.30;99.90
12761;DHT22;6444;49.742;6.114;2023-04-15T00:08:40;11.30;99.90
12761;DHT22;6444;49.742;6.114;2023-04-15T00:11:07;11.40;99.90
12761;DHT22;6444;49.742;6.114;2023-04-15T00:13:33;11.40;99.90
12761;DHT22;6444;49.742;6.114;2023-04-15T00:16:01;11.40;99.90
12761;DHT22;6444;49.742;6.114;2023-04-15T00:18:27;11.30;99.90
12761;DHT22;6444;49.742;6.114;2023-04-15T00:20:54;11.30;99.90
12761;DHT22;6444;49.742;6.114;2023-04-15T00:23:21;11.10;99.90
12761;DHT22;6444;49.742;6.114;2023-04-15T00:25:48;11.00;99.90
12761;DHT22;6444;49.742;6.114;2023-04-15T00:28:15;10.20;99.90
12761;DHT22;6444;49.742;6.114;2023-04-15T00:30:42;9.20;99.90
12761;DHT22;6444;49.742;6.114;2023-04-15T00:33:09;9.10;99.90
12761;DHT22;6444;49.742;6.114;2023-04-15T00:35:35;9.20;99.90
12761;DHT22;6444;49.742;6.114;2023-04-15T00:38:03;10.30;99.90
12761;DHT22;6444;49.742;6.114;2023-04-15T00:40:29;10.30;99.90
12761;DHT22;6444;49.742;6.114;2023-04-15T00:42:56;10.70;99.90
12761;DHT22;6444;49.742;6.114;2023-04-15T00:45:23;10.90;99.90
12761;DHT22;6444;49.742;6.114;2023-04-15T00:47:50;11.10;99.90
12761;DHT22;6444;49.742;6.114;2023-04-15T00:50:17;11.00;99.90
12761;DHT22;6444;49.742;6.114;2023-04-15T00:52:43;11.20;99.90
12761;DHT22;6444;49.742;6.114;2023-04-15T00:55:11;11.10;99.90
12761;DHT22;6444;49.742;6.114;2023-04-15T00:57:38;11.10;99.90
12761;DHT22;6444;49.742;6.114;2023-04-15T01:00:04;10.70;99.90
12761;DHT22;6444;49.742;6.114;2023-04-15T01:02:31;11.00;99.90
12761;DHT22;6444;49.742;6.114;2023-04-15T01:04:57;11.30;99.90
12761;DHT22;6444;49.742;6.114;2023-04-15T01:07:24;11.40;99.90
12761;DHT22;6444;49.742;6.114;2023-04-15T01:09:51;11.50;99.90
12761;DHT22;6444;49.742;6.114;2023-04-15T01:12:17;11.50;99.90
12761;DHT22;6444;49.742;6.114;2023-04-15T01:14:44;11.50;99.90
12761;DHT22;6444;49.742;6.114;2023-04-15T01:17:10;11.50;99.90
12761;DHT22;6444;49.742;6.114;2023-04-15T01:19:37;11.30;99.90
12761;DHT22;6444;49.742;6.114;2023-04-15T01:22:04;11.00;99.90
12761;DHT22;6444;49.742;6.114;2023-04-15T01:24:33;10.70;99.90
12761;DHT22;6444;49.742;6.114;2023-04-15T01:27:01;11.00;99.90
12761;DHT22;6444;49.742;6.114;2023-04-15T01:29:29;11.00;99.90
12761;DHT22;6444;49.742;6.114;2023-04-15T01:31:54;11.00;99.90
12761;DHT22;6444;49.742;6.114;2023-04-15T01:34:21;11.10;99.90
12761;DHT22;6444;49.742;6.114;2023-04-15T01:36:48;11.00;99.90
12761;DHT22;6444;49.742;6.114;2023-04-15T01:39:15;11.20;99.90
12761;DHT22;6444;49.742;6.114;2023-04-15T01:41:42;11.40;99.90
12761;DHT22;6444;49.742;6.114;2023-04-15T01:44:09;11.30;99.90
12761;DHT22;6444;49.742;6.114;2023-04-15T01:46:35;11.20;99.90
12761;DHT22;6444;49.742;6.114;2023-04-15T01:49:02;11.00;99.90
12761;DHT22;6444;49.742;6.114;2023-04-15T01:51:29;10.90;99.90
12761;DHT22;6444;49.742;6.114;2023-04-15T01:53:56;10.90;99.90
12761;DHT22;6444;49.742;6.114;2023-04-15T01:56:23;11.10;99.90
12761;DHT22;6444;49.742;6.114;2023-04-15T01:58:50;11.30;99.90
12761;DHT22;6444;49.742;6.114;2023-04-15T02:01:17;11.30;99.90
12761;DHT22;6444;49.742;6.114;2023-04-15T02:03:44;11.30;99.90
12761;DHT22;6444;49.742;6.114;2023-04-15T02:06:11;11.10;99.90
12761;DHT22;6444;49.742;6.114;2023-04-15T02:08:37;11.10;99.90
12761;DHT22;6444;49.742;6.114;2023-04-15T02:11:04;10.80;99.90
12761;DHT22;6444;49.742;6.114;2023-04-15T02:13:31;10.90;99.90
12761;DHT22;6444;49.742;6.114;2023-04-15T02:15:58;11.10;99.90
12761;DHT22;6444;49.742;6.114;2023-04-15T02:18:25;11.10;99.90
12761;DHT22;6444;49.742;6.114;2023-04-15T02:20:51;11.30;99.90
12761;DHT22;6444;49.742;6.114;2023-04-15T02:23:18;11.30;99.90
12761;DHT22;6444;49.742;6.114;2023-04-15T02:25:45;11.20;99.90
12761;DHT22;6444;49.742;6.114;2023-04-15T02:28:12;11.10;99.90
12761;DHT22;6444;49.742;6.114;2023-04-15T02:30:38;11.20;99.90
12761;DHT22;6444;49.742;6.114;2023-04-15T02:33:05;11.20;99.90
12761;DHT22;6444;49.742;6.114;2023-04-15T02:35:33;11.20;99.90
12761;DHT22;6444;49.742;6.114;2023-04-15T02:37:59;11.20;99.90
12761;DHT22;6444;49.742;6.114;2023-04-15T02:40:26;11.30;99.90
12761;DHT22;6444;49.742;6.114;2023-04-15T02:42:53;11.00;99.90
12761;DHT22;6444;49.742;6.114;2023-04-15T02:45:20;10.90;99.90
12761;DHT22;6444;49.742;6.114;2023-04-15T02:47:46;11.20;99.90
12761;DHT22;6444;49.742;6.114;2023-04-15T02:50:13;11.30;99.90
12761;DHT22;6444;49.742;6.114;2023-04-15T02:52:40;11.30;99.90
12761;DHT22;6444;49.742;6.114;2023-04-15T02:55:06;11.30;99.90
12761;DHT22;6444;49.742;6.114;2023-04-15T02:57:33;11.30;99.90
12761;DHT22;6444;49.742;6.114;2023-04-15T03:00:00;11.20;99.90
12761;DHT22;6444;49.742;6.114;2023-04-15T03:02:26;10.80;99.90
12761;DHT22;6444;49.742;6.114;2023-04-15T03:04:53;10.70;99.90
12761;DHT22;6444;49.742;6.114;2023-04-15T03:07:19;10.60;99.90
12761;DHT22;6444;49.742;6.114;2023-04-15T03:09:47;11.10;99.90
12761;DHT22;6444;49.742;6.114;2023-04-15T03:12:13;11.00;99.90
12761;DHT22;6444;49.742;6.114;2023-04-15T03:14:40;11.20;99.90
12761;DHT22;6444;49.742;6.114;2023-04-15T03:17:07;10.90;99.90
12761;DHT22;6444;49.742;6.114;2023-04-15T03:19:34;10.80;99.90
12761;DHT22;6444;49.742;6.114;2023-04-15T03:22:01;10.70;99.90
12761;DHT22;6444;49.742;6.114;2023-04-15T03:24:27;10.80;99.90
12761;DHT22;6444;49.742;6.114;2023-04-15T03:26:54;11.10;99.90
12761;DHT22;6444;49.742;6.114;2023-04-15T03:29:21;10.80;99.90
12761;DHT22;6444;49.742;6.114;2023-04-15T03:31:48;10.80;99.90
12761;DHT22;6444;49.742;6.114;2023-04-15T03:34:15;10.90;99.90
12761;DHT22;6444;49.742;6.114;2023-04-15T03:36:41;10.90;99.90
12761;DHT22;6444;49.742;6.114;2023-04-15T03:39:09;11.10;99.90
12761;DHT22;6444;49.742;6.114;2023-04-15T03:41:35;11.10;99.90
12761;DHT22;6444;49.742;6.114;2023-04-15T03:44:02;11.10;99.90
12761;DHT22;6444;49.742;6.114;2023-04-15T03:46:29;11.10;99.90
12761;DHT22;6444;49.742;6.114;2023-04-15T03:48:56;11.00;99.90
12761;DHT22;6444;49.742;6.114;2023-04-15T03:51:22;11.10;99.90
12761;DHT22;6444;49.742;6.114;2023-04-15T03:53:49;11.10;99.90
12761;DHT22;6444;49.742;6.114;2023-04-15T03:56:16;9.90;99.90
12761;DHT22;6444;49.742;6.114;2023-04-15T03:58:43;9.80;99.90
12761;DHT22;6444;49.742;6.114;2023-04-15T04:01:10;9.40;99.90
12761;DHT22;6444;49.742;6.114;2023-04-15T04:03:37;8.40;99.90
12761;DHT22;6444;49.742;6.114;2023-04-15T04:06:04;8.40;99.90
12761;DHT22;6444;49.742;6.114;2023-04-15T04:08:30;8.90;99.90
12761;DHT22;6444;49.742;6.114;2023-04-15T04:10:58;10.00;99.90
12761;DHT22;6444;49.742;6.114;2023-04-15T04:13:24;10.00;99.90
12761;DHT22;6444;49.742;6.114;2023-04-15T04:15:51;10.40;99.90
12761;DHT22;6444;49.742;6.114;2023-04-15T04:18:18;10.80;99.90
12761;DHT22;6444;49.742;6.114;2023-04-15T04:20:45;10.80;99.90
12761;DHT22;6444;49.742;6.114;2023-04-15T04:23:12;11.00;99.90
12761;DHT22;6444;49.742;6.114;2023-04-15T04:25:38;11.10;99.90
12761;DHT22;6444;49.742;6.114;2023-04-15T04:28:06;11.20;99.90
12761;DHT22;6444;49.742;6.114;2023-04-15T04:30:33;11.10;99.90
12761;DHT22;6444;49.742;6.114;2023-04-15T04:32:59;11.20;99.90
12761;DHT22;6444;49.742;6.114;2023-04-15T04:35:26;11.30;99.90
12761;DHT22;6444;49.742;6.114;2023-04-15T04:37:53;11.20;99.90
12761;DHT22;6444;49.742;6.114;2023-04-15T04:40:20;11.20;99.90
12761;DHT22;6444;49.742;6.114;2023-04-15T04:42:46;11.20;99.90
12761;DHT22;6444;49.742;6.114;2023-04-15T04:45:13;11.30;99.90
12761;DHT22;6444;49.742;6.114;2023-04-15T04:47:39;11.40;99.90
12761;DHT22;6444;49.742;6.114;2023-04-15T04:50:06;11.30;99.90
12761;DHT22;6444;49.742;6.114;2023-04-15T04:52:33;11.40;99.90
12761;DHT22;6444;49.742;6.114;2023-04-15T04:54:59;11.40;99.90
12761;DHT22;6444;49.742;6.114;2023-04-15T04:57:26;11.40;99.90
12761;DHT22;6444;49.742;6.114;2023-04-15T04:59:53;11.40;99.90
12761;DHT22;6444;49.742;6.114;2023-04-15T05:02:19;11.00;99.90
12761;DHT22;6444;49.742;6.114;2023-04-15T05:04:46;11.20;99.90
12761;DHT22;6444;49.742;6.114;2023-04-15T05:07:13;11.40;99.90
12761;DHT22;6444;49.742;6.114;2023-04-15T05:09:39;11.40;99.90
12761;DHT22;6444;49.742;6.114;2023-04-15T05:12:06;11.60;99.90
12761;DHT22;6444;49.742;6.114;2023-04-15T05:14:33;11.20;99.90
12761;DHT22;6444;49.742;6.114;2023-04-15T05:16:59;11.00;99.90
12761;DHT22;6444;49.742;6.114;2023-04-15T05:19:26;11.30;99.90
12761;DHT22;6444;49.742;6.114;2023-04-15T05:21:52;11.10;99.90
12761;DHT22;6444;49.742;6.114;2023-04-15T05:24:19;11.10;99.90
12761;DHT22;6444;49.742;6.114;2023-04-15T05:26:46;11.60;99.90
12761;DHT22;6444;49.742;6.114;2023-04-15T05:29:12;11.60;99.90
12761;DHT22;6444;49.742;6.114;2023-04-15T05:31:39;11.70;99.90
12761;DHT22;6444;49.742;6.114;2023-04-15T05:34:06;11.80;99.90
12761;DHT22;6444;49.742;6.114;2023-04-15T05:36:33;11.70;99.90
12761;DHT22;6444;49.742;6.114;2023-04-15T05:39:00;11.60;99.90
12761;DHT22;6444;49.742;6.114;2023-04-15T05:41:27;11.50;99.90
12761;DHT22;6444;49.742;6.114;2023-04-15T05:43:54;11.50;99.90
12761;DHT22;6444;49.742;6.114;2023-04-15T05:46:20;11.50;99.90
12761;DHT22;6444;49.742;6.114;2023-04-15T05:48:47;11.80;99.90
12761;DHT22;6444;49.742;6.114;2023-04-15T05:51:13;11.90;99.90
12761;DHT22;6444;49.742;6.114;2023-04-15T05:53:40;12.10;99.90
12761;DHT22;6444;49.742;6.114;2023-04-15T05:56:07;12.20;99.90
12761;DHT22;6444;49.742;6.114;2023-04-15T05:58:34;12.10;99.90
12761;DHT22;6444;49.742;6.114;2023-04-15T06:01:01;11.60;99.90
12761;DHT22;6444;49.742;6.114;2023-04-15T06:03:27;11.60;99.90
12761;DHT22;6444;49.742;6.114;2023-04-15T06:05:54;11.90;99.90
12761;DHT22;6444;49.742;6.114;2023-04-15T06:08:21;11.90;99.90
12761;DHT22;6444;49.742;6.114;2023-04-15T06:10:47;12.10;99.90
12761;DHT22;6444;49.742;6.114;2023-04-15T06:13:14;12.20;99.90
12761;DHT22;6444;49.742;6.114;2023-04-15T06:15:40;12.00;99.90
12761;DHT22;6444;49.742;6.114;2023-04-15T06:18:07;11.90;99.90
12761;DHT22;6444;49.742;6.114;2023-04-15T06:20:34;12.00;99.90
12761;DHT22;6444;49.742;6.114;2023-04-15T06:23:00;12.60;99.90
12761;DHT22;6444;49.742;6.114;2023-04-15T06:25:27;12.90;99.90
12761;DHT22;6444;49.742;6.114;2023-04-15T06:27:54;12.90;99.90
12761;DHT22;6444;49.742;6.114;2023-04-15T06:30:21;12.80;99.90
12761;DHT22;6444;49.742;6.114;2023-04-15T06:32:48;13.10;99.90
12761;DHT22;6444;49.742;6.114;2023-04-15T06:35:14;13.20;99.90
12761;DHT22;6444;49.742;6.114;2023-04-15T06:37:41;13.50;99.90
12761;DHT22;6444;49.742;6.114;2023-04-15T06:40:09;13.40;99.90
12761;DHT22;6444;49.742;6.114;2023-04-15T06:42:35;13.40;99.90
12761;DHT22;6444;49.742;6.114;2023-04-15T06:45:02;13.80;99.90
12761;DHT22;6444;49.742;6.114;2023-04-15T06:47:28;14.30;99.90
12761;DHT22;6444;49.742;6.114;2023-04-15T06:49:55;14.70;99.90
12761;DHT22;6444;49.742;6.114;2023-04-15T06:52:22;15.00;99.90
12761;DHT22;6444;49.742;6.114;2023-04-15T06:54:48;15.60;99.90
12761;DHT22;6444;49.742;6.114;2023-04-15T06:57:15;16.20;99.90
12761;DHT22;6444;49.742;6.114;2023-04-15T06:59:42;15.60;99.90
12761;DHT22;6444;49.742;6.114;2023-04-15T07:02:09;15.50;99.90
12761;DHT22;6444;49.742;6.114;2023-04-15T07:04:36;15.80;99.90
12761;DHT22;6444;49.742;6.114;2023-04-15T07:07:02;16.10;99.90
12761;DHT22;6444;49.742;6.114;2023-04-15T07:09:30;18.60;99.90
12761;DHT22;6444;49.742;6.114;2023-04-15T07:11:56;18.50;99.90
12761;DHT22;6444;49.742;6.114;2023-04-15T07:14:23;20.70;99.90
12761;DHT22;6444;49.742;6.114;2023-04-15T07:16:50;22.70;99.10
12761;DHT22;6444;49.742;6.114;2023-04-15T07:19:16;24.10;94.70
12761;DHT22;6444;49.742;6.114;2023-04-15T07:21:43;24.40;94.30
12761;DHT22;6444;49.742;6.114;2023-04-15T07:24:09;24.80;92.90
12761;DHT22;6444;49.742;6.114;2023-04-15T07:26:36;26.20;91.50
12761;DHT22;6444;49.742;6.114;2023-04-15T07:29:03;28.30;90.30
12761;DHT22;6444;49.742;6.114;2023-04-15T07:31:30;29.20;79.10
12761;DHT22;6444;49.742;6.114;2023-04-15T07:33:57;29.10;79.00
12761;DHT22;6444;49.742;6.114;2023-04-15T07:36:23;29.20;77.10
12761;DHT22;6444;49.742;6.114;2023-04-15T07:38:50;28.90;74.90
12761;DHT22;6444;49.742;6.114;2023-04-15T07:41:17;29.20;76.90
12761;DHT22;6444;49.742;6.114;2023-04-15T07:43:44;30.00;72.50
12761;DHT22;6444;49.742;6.114;2023-04-15T07:46:11;29.90;72.40
12761;DHT22;6444;49.742;6.114;2023-04-15T07:48:37;29.90;71.20
12761;DHT22;6444;49.742;6.114;2023-04-15T07:51:04;30.00;71.60
12761;DHT22;6444;49.742;6.114;2023-04-15T07:53:31;30.60;66.20
12761;DHT22;6444;49.742;6.114;2023-04-15T07:55:58;30.60;66.10
12761;DHT22;6444;49.742;6.114;2023-04-15T07:58:25;31.00;68.70
12761;DHT22;6444;49.742;6.114;2023-04-15T08:00:51;31.70;67.60
12761;DHT22;6444;49.742;6.114;2023-04-15T08:03:18;32.40;64.80
12761;DHT22;6444;49.742;6.114;2023-04-15T08:05:45;30.80;64.70
12761;DHT22;6444;49.742;6.114;2023-04-15T08:08:12;30.70;64.60
12761;DHT22;6444;49.742;6.114;2023-04-15T08:10:38;30.60;66.10
12761;DHT22;6444;49.742;6.114;2023-04-15T08:13:08;30.90;65.50
12761;DHT22;6444;49.742;6.114;2023-04-15T08:15:35;30.50;64.40
12761;DHT22;6444;49.742;6.114;2023-04-15T08:18:02;30.50;64.20
12761;DHT22;6444;49.742;6.114;2023-04-15T08:20:28;30.20;63.80
12761;DHT22;6444;49.742;6.114;2023-04-15T08:22:55;30.00;63.60
12761;DHT22;6444;49.742;6.114;2023-04-15T08:25:22;27.80;64.10
12761;DHT22;6444;49.742;6.114;2023-04-15T08:27:49;27.70;64.10
12761;DHT22;6444;49.742;6.114;2023-04-15T08:30:16;28.40;66.40
12761;DHT22;6444;49.742;6.114;2023-04-15T08:32:44;29.70;64.90
12761;DHT22;6444;49.742;6.114;2023-04-15T08:35:09;30.40;62.60
12761;DHT22;6444;49.742;6.114;2023-04-15T08:37:36;30.50;62.30
12761;DHT22;6444;49.742;6.114;2023-04-15T08:40:02;30.70;60.80
12761;DHT22;6444;49.742;6.114;2023-04-15T08:42:30;31.00;62.80
12761;DHT22;6444;49.742;6.114;2023-04-15T08:44:56;32.50;61.80
12761;DHT22;6444;49.742;6.114;2023-04-15T08:47:22;33.20;57.80
12761;DHT22;6444;49.742;6.114;2023-04-15T08:49:49;33.10;57.00
12761;DHT22;6444;49.742;6.114;2023-04-15T08:52:15;33.20;55.90
12761;DHT22;6444;49.742;6.114;2023-04-15T08:54:42;31.20;55.70
12761;DHT22;6444;49.742;6.114;2023-04-15T08:57:09;30.80;55.80
12761;DHT22;6444;49.742;6.114;2023-04-15T08:59:35;30.70;59.40
12761;DHT22;6444;49.742;6.114;2023-04-15T09:02:03;31.90;57.20
12761;DHT22;6444;49.742;6.114;2023-04-15T09:04:29;31.80;57.10
12761;DHT22;6444;49.742;6.114;2023-04-15T09:06:56;31.20;55.10
12761;DHT22;6444;49.742;6.114;2023-04-15T09:09:23;30.80;56.20
12761;DHT22;6444;49.742;6.114;2023-04-15T09:11:49;30.90;54.40
12761;DHT22;6444;49.742;6.114;2023-04-15T09:14:17;26.50;56.30
12761;DHT22;6444;49.742;6.114;2023-04-15T09:19:23;25.70;59.00
12761;DHT22;6444;49.742;6.114;2023-04-15T09:21:52;25.60;59.00
12761;DHT22;6444;49.742;6.114;2023-04-15T09:24:19;23.40;58.30
12761;DHT22;6444;49.742;6.114;2023-04-15T09:26:45;24.40;61.70
12761;DHT22;6444;49.742;6.114;2023-04-15T09:29:12;25.90;59.10
12761;DHT22;6444;49.742;6.114;2023-04-15T09:31:39;27.90;57.50
12761;DHT22;6444;49.742;6.114;2023-04-15T09:34:05;28.10;55.70
12761;DHT22;6444;49.742;6.114;2023-04-15T09:39:14;26.60;53.90
12761;DHT22;6444;49.742;6.114;2023-04-15T09:41:41;25.90;52.30
12761;DHT22;6444;49.742;6.114;2023-04-15T09:44:29;25.80;51.40
12761;DHT22;6444;49.742;6.114;2023-04-15T09:46:44;22.90;53.10
12761;DHT22;6444;49.742;6.114;2023-04-15T09:49:11;21.20;56.30
12761;DHT22;6444;49.742;6.114;2023-04-15T09:51:37;20.50;58.10
12761;DHT22;6444;49.742;6.114;2023-04-15T09:54:04;20.80;57.70
12761;DHT22;6444;49.742;6.114;2023-04-15T09:56:37;19.90;57.70
12761;DHT22;6444;49.742;6.114;2023-04-15T09:59:05;18.10;61.00
12761;DHT22;6444;49.742;6.114;2023-04-15T10:01:32;17.90;61.70
12761;DHT22;6444;49.742;6.114;2023-04-15T10:04:00;18.00;58.00
12761;DHT22;6444;49.742;6.114;2023-04-15T10:06:25;16.80;64.90
12761;DHT22;6444;49.742;6.114;2023-04-15T10:08:53;17.80;66.60
12761;DHT22;6444;49.742;6.114;2023-04-15T10:11:19;19.20;61.60
12761;DHT22;6444;49.742;6.114;2023-04-15T10:13:46;22.70;59.40
12761;DHT22;6444;49.742;6.114;2023-04-15T10:16:18;22.60;59.30
12761;DHT22;6444;49.742;6.114;2023-04-15T10:18:45;22.20;57.40
12761;DHT22;6444;49.742;6.114;2023-04-15T10:21:11;22.00;57.50
12761;DHT22;6444;49.742;6.114;2023-04-15T10:23:41;20.70;59.20
12761;DHT22;6444;49.742;6.114;2023-04-15T10:26:07;20.30;62.60
12761;DHT22;6444;49.742;6.114;2023-04-15T10:28:40;21.80;57.60
12761;DHT22;6444;49.742;6.114;2023-04-15T10:31:06;21.60;61.00
12761;DHT22;6444;49.742;6.114;2023-04-15T10:33:33;21.60;58.40
12761;DHT22;6444;49.742;6.114;2023-04-15T10:36:00;22.20;61.00
12761;DHT22;6444;49.742;6.114;2023-04-15T10:38:39;23.50;58.50
12761;DHT22;6444;49.742;6.114;2023-04-15T10:41:20;23.50;55.80
12761;DHT22;6444;49.742;6.114;2023-04-15T10:43:48;20.90;55.70
12761;DHT22;6444;49.742;6.114;2023-04-15T10:46:17;20.80;56.20
12761;DHT22;6444;49.742;6.114;2023-04-15T10:48:45;19.10;57.80
12761;DHT22;6444;49.742;6.114;2023-04-15T10:51:07;19.50;61.90
12761;DHT22;6444;49.742;6.114;2023-04-15T10:53:34;20.30;63.40
12761;DHT22;6444;49.742;6.114;2023-04-15T10:56:00;20.30;59.20
12761;DHT22;6444;49.742;6.114;2023-04-15T10:58:27;21.10;60.80
12761;DHT22;6444;49.742;6.114;2023-04-15T11:00:53;22.80;58.30
12761;DHT22;6444;49.742;6.114;2023-04-15T11:03:36;22.00;59.10
12761;DHT22;6444;49.742;6.114;2023-04-15T11:06:02;20.40;60.00
12761;DHT22;6444;49.742;6.114;2023-04-15T11:11:20;21.00;61.70
12761;DHT22;6444;49.742;6.114;2023-04-15T11:13:50;21.40;62.70
12761;DHT22;6444;49.742;6.114;2023-04-15T11:16:13;22.40;58.70
12761;DHT22;6444;49.742;6.114;2023-04-15T11:18:40;21.90;63.20
12761;DHT22;6444;49.742;6.114;2023-04-15T11:21:07;22.10;62.90
12761;DHT22;6444;49.742;6.114;2023-04-15T11:26:00;23.00;58.90
12761;DHT22;6444;49.742;6.114;2023-04-15T11:28:27;21.70;60.00
12761;DHT22;6444;49.742;6.114;2023-04-15T11:30:53;21.70;61.00
12761;DHT22;6444;49.742;6.114;2023-04-15T11:33:19;22.80;59.40
12761;DHT22;6444;49.742;6.114;2023-04-15T11:35:46;23.70;59.90
12761;DHT22;6444;49.742;6.114;2023-04-15T11:38:13;23.20;56.20
12761;DHT22;6444;49.742;6.114;2023-04-15T11:40:40;22.30;58.20
12761;DHT22;6444;49.742;6.114;2023-04-15T11:43:07;21.30;58.70
12761;DHT22;6444;49.742;6.114;2023-04-15T11:45:33;20.00;63.90
12761;DHT22;6444;49.742;6.114;2023-04-15T11:48:09;20.40;59.00
12761;DHT22;6444;49.742;6.114;2023-04-15T11:50:35;20.40;61.30
12761;DHT22;6444;49.742;6.114;2023-04-15T11:53:05;21.30;60.10
12761;DHT22;6444;49.742;6.114;2023-04-15T11:55:28;21.80;59.70
12761;DHT22;6444;49.742;6.114;2023-04-15T11:58:13;22.20;59.10
12761;DHT22;6444;49.742;6.114;2023-04-15T12:00:40;20.90;57.80
12761;DHT22;6444;49.742;6.114;2023-04-15T12:03:13;20.80;57.60
12761;DHT22;6444;49.742;6.114;2023-04-15T12:11:18;22.60;58.30
12761;DHT22;6444;49.742;6.114;2023-04-15T12:13:46;23.50;55.80
12761;DHT22;6444;49.742;6.114;2023-04-15T12:16:11;24.10;56.10
12761;DHT22;6444;49.742;6.114;2023-04-15T12:18:38;24.40;55.90
12761;DHT22;6444;49.742;6.114;2023-04-15T12:21:11;22.40;56.20
12761;DHT22;6444;49.742;6.114;2023-04-15T12:23:47;20.70;59.40
12761;DHT22;6444;49.742;6.114;2023-04-15T12:26:14;17.40;64.70
12761;DHT22;6444;49.742;6.114;2023-04-15T12:28:41;17.30;64.60
12761;DHT22;6444;49.742;6.114;2023-04-15T12:31:10;17.50;65.70
12761;DHT22;6444;49.742;6.114;2023-04-15T12:33:36;17.50;66.30
12761;DHT22;6444;49.742;6.114;2023-04-15T12:36:03;18.50;65.40
12761;DHT22;6444;49.742;6.114;2023-04-15T12:38:30;19.10;63.10
12761;DHT22;6444;49.742;6.114;2023-04-15T12:40:59;19.50;63.20
12761;DHT22;6444;49.742;6.114;2023-04-15T12:43:26;19.40;63.00
12761;DHT22;6444;49.742;6.114;2023-04-15T12:45:53;19.50;62.50
12761;DHT22;6444;49.742;6.114;2023-04-15T12:48:19;19.50;64.20
12761;DHT22;6444;49.742;6.114;2023-04-15T12:50:46;19.70;60.70
12761;DHT22;6444;49.742;6.114;2023-04-15T12:53:13;19.10;62.40
12761;DHT22;6444;49.742;6.114;2023-04-15T12:55:39;19.00;61.30
12761;DHT22;6444;49.742;6.114;2023-04-15T12:58:06;18.00;62.20
12761;DHT22;6444;49.742;6.114;2023-04-15T13:00:33;17.80;63.50
12761;DHT22;6444;49.742;6.114;2023-04-15T13:02:59;18.40;62.50
12761;DHT22;6444;49.742;6.114;2023-04-15T13:05:26;18.90;62.20
12761;DHT22;6444;49.742;6.114;2023-04-15T13:07:52;18.90;62.10
12761;DHT22;6444;49.742;6.114;2023-04-15T13:10:19;19.50;60.70
12761;DHT22;6444;49.742;6.114;2023-04-15T13:12:48;19.90;57.50
12761;DHT22;6444;49.742;6.114;2023-04-15T13:15:13;19.80;57.40
12761;DHT22;6444;49.742;6.114;2023-04-15T13:17:40;19.90;58.10
12761;DHT22;6444;49.742;6.114;2023-04-15T13:20:06;20.40;57.00
12761;DHT22;6444;49.742;6.114;2023-04-15T13:22:33;20.20;57.60
12761;DHT22;6444;49.742;6.114;2023-04-15T13:24:59;20.70;57.70
12761;DHT22;6444;49.742;6.114;2023-04-15T13:27:26;20.60;56.30
12761;DHT22;6444;49.742;6.114;2023-04-15T13:29:53;19.20;59.10
12761;DHT22;6444;49.742;6.114;2023-04-15T13:32:19;19.30;60.00
12761;DHT22;6444;49.742;6.114;2023-04-15T13:34:47;18.50;60.00
12761;DHT22;6444;49.742;6.114;2023-04-15T13:37:13;18.50;60.00
12761;DHT22;6444;49.742;6.114;2023-04-15T13:39:40;19.00;61.90
12761;DHT22;6444;49.742;6.114;2023-04-15T13:42:07;19.50;61.40
12761;DHT22;6444;49.742;6.114;2023-04-15T13:44:34;20.60;58.80
12761;DHT22;6444;49.742;6.114;2023-04-15T13:47:01;20.60;58.80
12761;DHT22;6444;49.742;6.114;2023-04-15T13:49:27;20.80;58.80
12761;DHT22;6444;49.742;6.114;2023-04-15T13:51:54;21.10;58.70
12761;DHT22;6444;49.742;6.114;2023-04-15T13:54:20;20.00;57.00
12761;DHT22;6444;49.742;6.114;2023-04-15T13:56:47;19.20;56.60
12761;DHT22;6444;49.742;6.114;2023-04-15T13:59:15;18.40;56.80
12761;DHT22;6444;49.742;6.114;2023-04-15T14:01:41;18.30;56.50
12761;DHT22;6444;49.742;6.114;2023-04-15T14:04:08;18.70;55.90
12761;DHT22;6444;49.742;6.114;2023-04-15T14:06:35;19.30;58.70
12761;DHT22;6444;49.742;6.114;2023-04-15T14:09:02;19.20;58.60
12761;DHT22;6444;49.742;6.114;2023-04-15T14:11:28;19.70;58.50
12761;DHT22;6444;49.742;6.114;2023-04-15T14:13:55;19.90;58.00
12761;DHT22;6444;49.742;6.114;2023-04-15T14:16:22;19.80;59.60
12761;DHT22;6444;49.742;6.114;2023-04-15T14:18:48;18.30;60.40
12761;DHT22;6444;49.742;6.114;2023-04-15T14:21:15;18.10;63.20
12761;DHT22;6444;49.742;6.114;2023-04-15T14:23:42;18.50;62.30
12761;DHT22;6444;49.742;6.114;2023-04-15T14:26:08;18.20;63.00
12761;DHT22;6444;49.742;6.114;2023-04-15T14:28:35;17.90;64.40
12761;DHT22;6444;49.742;6.114;2023-04-15T14:31:01;17.20;60.80
12761;DHT22;6444;49.742;6.114;2023-04-15T14:33:28;17.10;63.30
12761;DHT22;6444;49.742;6.114;2023-04-15T14:35:55;17.00;62.00
12761;DHT22;6444;49.742;6.114;2023-04-15T14:38:21;16.90;62.50
12761;DHT22;6444;49.742;6.114;2023-04-15T14:40:48;16.50;64.40
12761;DHT22;6444;49.742;6.114;2023-04-15T14:43:15;17.00;64.40
12761;DHT22;6444;49.742;6.114;2023-04-15T14:45:42;17.00;64.40
12761;DHT22;6444;49.742;6.114;2023-04-15T14:48:09;17.20;63.00
12761;DHT22;6444;49.742;6.114;2023-04-15T14:50:35;16.60;65.90
12761;DHT22;6444;49.742;6.114;2023-04-15T14:53:02;16.70;67.30
12761;DHT22;6444;49.742;6.114;2023-04-15T14:55:29;17.30;68.30
12761;DHT22;6444;49.742;6.114;2023-04-15T14:57:56;17.30;68.20
12761;DHT22;6444;49.742;6.114;2023-04-15T15:00:23;17.10;68.60
12761;DHT22;6444;49.742;6.114;2023-04-15T15:02:49;17.00;70.60
12761;DHT22;6444;49.742;6.114;2023-04-15T15:05:16;16.90;72.00
12761;DHT22;6444;49.742;6.114;2023-04-15T15:07:42;17.10;70.70
12761;DHT22;6444;49.742;6.114;2023-04-15T15:10:10;17.70;68.50
12761;DHT22;6444;49.742;6.114;2023-04-15T15:12:36;17.60;68.50
12761;DHT22;6444;49.742;6.114;2023-04-15T15:15:03;17.30;70.50
12761;DHT22;6444;49.742;6.114;2023-04-15T15:17:30;16.90;72.30
12761;DHT22;6444;49.742;6.114;2023-04-15T15:19:56;17.10;72.20
12761;DHT22;6444;49.742;6.114;2023-04-15T15:22:23;16.40;73.00
12761;DHT22;6444;49.742;6.114;2023-04-15T15:24:50;16.40;72.60
12761;DHT22;6444;49.742;6.114;2023-04-15T15:27:16;16.40;73.80
12761;DHT22;6444;49.742;6.114;2023-04-15T15:29:43;16.50;75.10
12761;DHT22;6444;49.742;6.114;2023-04-15T15:32:10;16.40;75.30
12761;DHT22;6444;49.742;6.114;2023-04-15T15:34:36;16.50;74.50
12761;DHT22;6444;49.742;6.114;2023-04-15T15:37:03;16.10;76.60
12761;DHT22;6444;49.742;6.114;2023-04-15T15:39:29;15.90;77.20
12761;DHT22;6444;49.742;6.114;2023-04-15T15:41:56;16.10;77.20
12761;DHT22;6444;49.742;6.114;2023-04-15T15:44:23;15.60;77.40
12761;DHT22;6444;49.742;6.114;2023-04-15T15:46:49;15.30;78.60
12761;DHT22;6444;49.742;6.114;2023-04-15T15:49:16;15.60;78.30
12761;DHT22;6444;49.742;6.114;2023-04-15T15:51:43;15.10;79.20
12761;DHT22;6444;49.742;6.114;2023-04-15T15:54:09;15.50;79.70
12761;DHT22;6444;49.742;6.114;2023-04-15T15:56:36;16.20;77.70
12761;DHT22;6444;49.742;6.114;2023-04-15T15:59:02;16.30;77.40
12761;DHT22;6444;49.742;6.114;2023-04-15T16:01:29;16.40;77.60